createdAt,value
2022-08-17T00:02:25.226Z,87.86
2022-08-17T00:04:55.001Z,88.01
2022-08-17T00:07:22.709Z,87.54
2022-08-17T00:09:49.330Z,87.60
2022-08-17T00:12:43.136Z,88.06
2022-08-17T00:15:04.793Z,88.20
2022-08-17T00:17:31.346Z,88.20
2022-08-17T00:19:57.897Z,87.97
2022-08-17T00:22:34.672Z,88.12
2022-08-17T00:25:07.371Z,88.40
2022-08-17T00:27:34.702Z,88.95
2022-08-17T00:30:01.546Z,88.82
2022-08-17T00:33:12.321Z,88.84
2022-08-17T00:35:17.718Z,89.00
2022-08-17T00:37:44.459Z,88.23
2022-08-17T00:40:13.448Z,87.93
2022-08-17T00:42:40.099Z,88.26
2022-08-17T00:45:08.457Z,88.28
2022-08-17T00:47:35.068Z,88.71
2022-08-17T00:50:02.174Z,88.61
2022-08-17T00:52:36.049Z,87.97
2022-08-17T00:55:04.782Z,88.49
2022-08-17T00:57:36.524Z,88.25
2022-08-17T01:00:26.666Z,88.36
2022-08-17T01:02:59.019Z,88.92
2022-08-17T01:05:29.644Z,89.04
2022-08-17T01:07:57.287Z,88.97
2022-08-17T01:10:58.798Z,88.55
2022-08-17T01:13:24.576Z,88.55
2022-08-17T01:15:57.427Z,88.57
2022-08-17T01:18:26.204Z,88.21
2022-08-17T01:20:55.611Z,88.54
2022-08-17T01:23:25.062Z,88.50
2022-08-17T01:25:55.591Z,88.72
2022-08-17T01:28:33.375Z,88.74
2022-08-17T01:31:11.704Z,88.71
2022-08-17T01:33:38.560Z,88.37
2022-08-17T01:36:07.246Z,88.50
2022-08-17T01:38:38.424Z,88.72
2022-08-17T01:41:15.489Z,89.29
2022-08-17T01:43:51.028Z,89.28
2022-08-17T01:46:22.795Z,89.42
2022-08-17T01:48:51.223Z,89.39
2022-08-17T01:51:20.144Z,89.47
2022-08-17T01:53:54.341Z,89.69
2022-08-17T01:56:24.165Z,89.26
2022-08-17T01:58:51.092Z,89.23
2022-08-17T02:01:20.818Z,89.69
2022-08-17T02:03:54.541Z,90.12
2022-08-17T02:06:29.208Z,90.14
2022-08-17T02:09:02.850Z,90.08
2022-08-17T02:11:32.313Z,90.28
2022-08-17T02:14:03.328Z,90.73
2022-08-17T02:16:37.459Z,91.17
2022-08-17T02:19:10.991Z,91.63
2022-08-17T02:21:39.325Z,91.76
2022-08-17T02:24:10.959Z,91.75
2022-08-17T02:26:37.486Z,91.95
2022-08-17T02:29:04.348Z,92.41
2022-08-17T02:31:31.250Z,92.79
2022-08-17T02:34:03.857Z,92.99
2022-08-17T02:36:32.935Z,93.22
2022-08-17T02:39:01.421Z,93.51
2022-08-17T02:41:27.963Z,93.76
2022-08-17T02:43:54.548Z,94.51
2022-08-17T02:46:21.084Z,95.37
2022-08-17T02:48:47.586Z,95.67
2022-08-17T02:51:14.659Z,95.34
2022-08-17T02:53:41.204Z,94.99
2022-08-17T02:56:08.208Z,95.25
2022-08-17T02:58:36.068Z,95.46
2022-08-17T03:01:05.748Z,95.54
2022-08-17T03:03:32.454Z,96.69
2022-08-17T03:05:59.121Z,97.21
2022-08-17T03:08:25.715Z,97.67
2022-08-17T03:10:52.579Z,97.96
2022-08-17T03:13:19.545Z,97.82
2022-08-17T03:15:48.009Z,97.83
2022-08-17T03:18:19.103Z,97.88
2022-08-17T03:20:51.724Z,97.96
2022-08-17T03:23:18.778Z,97.91
2022-08-17T03:25:50.518Z,98.11
2022-08-17T03:28:20.799Z,98.20
2022-08-17T03:30:47.459Z,98.46
2022-08-17T03:33:14.052Z,99.07
2022-08-17T03:35:41.803Z,100.00
2022-08-17T03:38:10.233Z,100.00
2022-08-17T03:40:56.412Z,100.00
2022-08-17T03:43:24.090Z,100.00
2022-08-17T03:46:10.948Z,100.00
2022-08-17T03:49:12.911Z,100.00
2022-08-17T03:51:57.952Z,100.00
2022-08-17T03:54:43.059Z,100.00
2022-08-17T03:57:11.539Z,100.00
2022-08-17T03:59:39.279Z,100.00
2022-08-17T04:02:09.749Z,100.00
2022-08-17T04:04:37.329Z,100.00
2022-08-17T04:07:04.383Z,100.00
2022-08-17T04:09:31.147Z,100.00
2022-08-17T04:11:57.688Z,100.00
2022-08-17T04:14:37.883Z,100.00
2022-08-17T04:17:21.914Z,100.00
2022-08-17T04:19:48.450Z,100.00
2022-08-17T04:22:32.622Z,100.00
2022-08-17T04:25:15.542Z,100.00
2022-08-17T04:27:42.088Z,100.00
2022-08-17T04:30:09.312Z,100.00
2022-08-17T04:33:09.890Z,100.00
2022-08-17T04:35:43.846Z,100.00
2022-08-17T04:38:13.460Z,100.00
2022-08-17T04:40:58.603Z,100.00
2022-08-17T04:43:27.290Z,100.00
2022-08-17T04:46:05.994Z,100.00
2022-08-17T04:48:40.031Z,100.00
2022-08-17T04:51:11.573Z,100.00
2022-08-17T04:53:40.104Z,100.00
2022-08-17T04:56:07.495Z,100.00
2022-08-17T04:58:38.600Z,100.00
2022-08-17T05:01:05.966Z,100.00
2022-08-17T05:03:32.667Z,100.00
2022-08-17T05:05:59.499Z,100.00
2022-08-17T05:08:26.374Z,100.00
2022-08-17T05:10:52.982Z,100.00
2022-08-17T05:13:24.755Z,100.00
2022-08-17T05:15:55.239Z,100.00
2022-08-17T05:18:22.244Z,100.00
2022-08-17T05:20:52.517Z,100.00
2022-08-17T05:23:21.197Z,100.00
2022-08-17T05:25:51.128Z,100.00
2022-08-17T05:28:24.035Z,100.00
2022-08-17T05:30:51.049Z,100.00
2022-08-17T05:33:20.741Z,100.00
2022-08-17T05:35:50.556Z,100.00
2022-08-17T05:38:20.054Z,100.00
2022-08-17T05:40:46.950Z,100.00
2022-08-17T05:43:17.086Z,100.00
2022-08-17T05:45:55.291Z,100.00
2022-08-17T05:48:35.544Z,100.00
2022-08-17T05:51:48.229Z,100.00
2022-08-17T05:54:36.095Z,100.00
2022-08-17T05:57:24.218Z,100.00
2022-08-17T06:00:04.606Z,100.00
2022-08-17T06:02:54.007Z,100.00
2022-08-17T06:05:26.592Z,100.00
2022-08-17T06:08:12.159Z,100.00
2022-08-17T06:10:47.833Z,100.00
2022-08-17T06:13:35.658Z,100.00
2022-08-17T06:16:34.442Z,100.00
2022-08-17T06:19:00.929Z,100.00
2022-08-17T06:21:33.993Z,100.00
2022-08-17T06:24:25.583Z,100.00
2022-08-17T06:26:53.952Z,100.00
2022-08-17T06:29:29.334Z,100.00
2022-08-17T06:31:55.870Z,100.00
2022-08-17T06:34:22.424Z,100.00
2022-08-17T06:36:58.636Z,100.00
2022-08-17T06:39:45.863Z,100.00
2022-08-17T06:43:05.074Z,100.00
2022-08-17T06:45:18.305Z,100.00
2022-08-17T06:48:10.454Z,100.00
2022-08-17T06:50:47.894Z,100.00
2022-08-17T06:53:52.779Z,100.00
2022-08-17T06:56:53.263Z,100.00
2022-08-17T06:59:25.468Z,100.00
2022-08-17T07:01:55.445Z,100.00
2022-08-17T07:04:30.131Z,100.00
2022-08-17T07:07:26.809Z,100.00
2022-08-17T07:09:56.519Z,100.00
2022-08-17T07:12:27.997Z,100.00
2022-08-17T07:15:11.151Z,100.00
2022-08-17T07:17:47.576Z,100.00
2022-08-17T07:20:20.605Z,100.00
2022-08-17T07:23:01.953Z,100.00
2022-08-17T07:25:30.660Z,100.00
2022-08-17T07:28:02.449Z,100.00
2022-08-17T07:30:47.245Z,100.00
2022-08-17T07:33:20.200Z,100.00
2022-08-17T07:35:48.450Z,100.00
2022-08-17T07:38:26.896Z,100.00
2022-08-17T07:41:02.994Z,99.90
2022-08-17T07:43:32.920Z,97.11
2022-08-17T07:46:38.631Z,96.05
2022-08-17T07:49:06.746Z,95.84
2022-08-17T07:51:36.377Z,92.52
2022-08-17T07:54:15.105Z,90.20
2022-08-17T07:56:47.053Z,87.38
2022-08-17T07:59:23.551Z,86.44
2022-08-17T08:02:03.832Z,82.82
2022-08-17T08:04:59.656Z,80.45
2022-08-17T08:07:31.837Z,79.76
2022-08-17T08:10:15.244Z,77.22
2022-08-17T08:12:47.165Z,74.94
2022-08-17T08:15:33.293Z,74.43
2022-08-17T08:18:03.081Z,72.82
2022-08-17T08:20:52.984Z,72.22
2022-08-17T08:23:35.142Z,72.96
2022-08-17T08:26:17.945Z,73.13
2022-08-17T08:28:51.216Z,72.17
2022-08-17T08:31:42.235Z,72.08
2022-08-17T08:34:46.324Z,71.10
2022-08-17T08:37:42.028Z,69.03
2022-08-17T08:40:46.888Z,70.28
2022-08-17T08:43:31.453Z,69.42
2022-08-17T08:46:06.806Z,68.31
2022-08-17T08:49:12.273Z,67.79
2022-08-17T08:51:49.416Z,67.49
2022-08-17T08:54:27.305Z,67.95
2022-08-17T08:57:24.356Z,66.85
2022-08-17T09:00:16.989Z,66.54
2022-08-17T09:02:58.694Z,66.25
2022-08-17T09:05:33.083Z,65.27
2022-08-17T09:07:59.555Z,66.46
2022-08-17T09:10:49.777Z,66.10
2022-08-17T09:13:23.455Z,65.59
2022-08-17T09:16:23.148Z,64.87
2022-08-17T09:19:02.653Z,65.32
2022-08-17T09:21:48.735Z,63.87
2022-08-17T09:24:43.410Z,62.47
2022-08-17T09:27:15.906Z,61.52
2022-08-17T09:29:48.467Z,62.29
2022-08-17T09:32:24.817Z,62.80
2022-08-17T09:34:57.174Z,61.68
2022-08-17T09:37:35.626Z,61.89
2022-08-17T09:40:21.231Z,62.00
2022-08-17T09:42:54.350Z,60.59
2022-08-17T09:45:30.991Z,59.35
2022-08-17T09:48:14.575Z,57.71
2022-08-17T09:51:03.355Z,57.79
2022-08-17T09:53:32.741Z,58.17
2022-08-17T09:56:14.295Z,58.07
2022-08-17T09:58:50.505Z,58.89
2022-08-17T10:01:36.699Z,58.97
2022-08-17T10:04:20.382Z,59.86
2022-08-17T10:06:58.854Z,59.58
2022-08-17T10:09:42.238Z,59.14
2022-08-17T10:12:30.120Z,58.99
2022-08-17T10:15:15.783Z,60.13
2022-08-17T10:18:03.745Z,60.57
2022-08-17T10:20:41.578Z,60.34
2022-08-17T10:23:41.185Z,59.91
2022-08-17T10:26:13.009Z,60.43
2022-08-17T10:29:24.481Z,60.06
2022-08-17T10:32:01.652Z,60.74
2022-08-17T10:34:41.692Z,61.01
2022-08-17T10:37:40.166Z,60.81
2022-08-17T10:40:33.157Z,60.37
2022-08-17T10:43:29.447Z,61.28
2022-08-17T10:46:30.289Z,59.12
2022-08-17T10:49:15.918Z,56.23
2022-08-17T10:51:47.920Z,56.58
2022-08-17T10:54:39.297Z,57.36
2022-08-17T10:57:31.742Z,59.02
2022-08-17T11:00:04.400Z,58.67
2022-08-17T11:02:51.248Z,58.87
2022-08-17T11:05:23.798Z,59.23
2022-08-17T11:07:53.377Z,59.12
2022-08-17T11:10:38.169Z,59.72
2022-08-17T11:13:45.040Z,60.08
2022-08-17T11:16:33.021Z,59.58
2022-08-17T11:19:18.025Z,59.91
2022-08-17T11:21:59.646Z,60.08
2022-08-17T11:24:35.340Z,59.80
2022-08-17T11:27:12.320Z,60.22
2022-08-17T11:29:58.174Z,58.87
2022-08-17T11:32:37.432Z,59.90
2022-08-17T11:35:20.925Z,58.63
2022-08-17T11:38:09.685Z,57.73
2022-08-17T11:40:53.565Z,56.57
2022-08-17T11:43:30.103Z,56.68
2022-08-17T11:46:10.846Z,57.49
2022-08-17T11:49:11.224Z,57.04
2022-08-17T11:52:13.022Z,56.35
2022-08-17T11:54:47.867Z,56.82
2022-08-17T11:57:26.383Z,56.55
2022-08-17T12:00:30.177Z,56.45
2022-08-17T12:03:22.542Z,54.93
2022-08-17T12:05:53.536Z,54.44
2022-08-17T12:08:21.682Z,53.65
2022-08-17T12:10:59.712Z,54.74
2022-08-17T12:13:35.205Z,55.19
2022-08-17T12:16:07.313Z,55.61
2022-08-17T12:18:38.447Z,55.95
2022-08-17T12:21:22.301Z,56.28
2022-08-17T12:24:31.485Z,56.78
2022-08-17T12:27:01.213Z,57.07
2022-08-17T12:29:38.358Z,57.30
2022-08-17T12:32:13.010Z,57.20
2022-08-17T12:34:42.213Z,55.79
2022-08-17T12:37:22.544Z,55.88
2022-08-17T12:40:02.180Z,55.87
2022-08-17T12:42:39.410Z,56.38
2022-08-17T12:45:24.340Z,56.84
2022-08-17T12:48:06.596Z,54.68
2022-08-17T12:50:39.500Z,55.12
2022-08-17T12:53:15.903Z,55.26
2022-08-17T12:55:44.472Z,55.81
2022-08-17T12:58:14.487Z,54.92
2022-08-17T13:00:48.827Z,55.58
2022-08-17T13:03:19.401Z,55.46
2022-08-17T13:05:52.019Z,55.45
2022-08-17T13:08:21.071Z,55.45
2022-08-17T13:10:57.202Z,55.73
2022-08-17T13:13:28.165Z,55.67
2022-08-17T13:16:00.424Z,56.05
2022-08-17T13:18:48.031Z,53.99
2022-08-17T13:21:23.846Z,54.44
2022-08-17T13:24:08.004Z,54.62
2022-08-17T13:26:38.714Z,54.71
2022-08-17T13:29:08.290Z,55.19
2022-08-17T13:31:52.089Z,54.41
2022-08-17T13:34:31.836Z,54.69
2022-08-17T13:37:27.104Z,54.31
2022-08-17T13:40:07.459Z,54.40
2022-08-17T13:42:52.178Z,54.90
2022-08-17T13:45:36.494Z,55.08
2022-08-17T13:48:17.057Z,55.35
2022-08-17T13:50:55.768Z,55.42
2022-08-17T13:53:29.527Z,54.92
2022-08-17T13:56:37.082Z,54.37
2022-08-17T13:59:11.074Z,52.57
2022-08-17T14:01:41.992Z,52.60
2022-08-17T14:04:14.956Z,52.98
2022-08-17T14:06:53.050Z,52.59
2022-08-17T14:09:24.232Z,52.25
2022-08-17T14:11:51.746Z,52.19
2022-08-17T14:14:18.707Z,52.74
2022-08-17T14:16:45.349Z,52.63
2022-08-17T14:19:13.676Z,52.44
2022-08-17T14:21:45.345Z,52.79
2022-08-17T14:24:22.695Z,52.54
2022-08-17T14:26:52.126Z,52.28
2022-08-17T14:29:20.438Z,51.95
2022-08-17T14:31:53.232Z,50.46
2022-08-17T14:34:21.447Z,49.15
2022-08-17T14:36:48.869Z,49.72
2022-08-17T14:39:16.746Z,48.75
2022-08-17T14:41:43.752Z,49.73
2022-08-17T14:44:13.113Z,49.97
2022-08-17T14:46:41.289Z,50.41
2022-08-17T14:49:10.803Z,51.03
2022-08-17T14:51:43.694Z,51.63
2022-08-17T14:54:11.861Z,52.35
2022-08-17T14:57:14.812Z,52.01
2022-08-17T14:59:45.150Z,52.42
2022-08-17T15:02:12.426Z,53.22
2022-08-17T15:04:44.920Z,54.07
2022-08-17T15:07:12.149Z,54.00
2022-08-17T15:09:39.092Z,54.51
2022-08-17T15:12:06.715Z,54.29
2022-08-17T15:14:35.482Z,54.54
2022-08-17T15:17:05.700Z,54.92
2022-08-17T15:19:32.273Z,57.17
2022-08-17T15:21:58.821Z,58.16
2022-08-17T15:24:25.377Z,58.55
2022-08-17T15:26:51.907Z,58.89
2022-08-17T15:29:18.435Z,59.81
2022-08-17T15:31:45.222Z,60.30
2022-08-17T15:34:11.919Z,60.94
2022-08-17T15:36:38.898Z,60.99
2022-08-17T15:39:14.481Z,61.38
2022-08-17T15:41:47.315Z,61.85
2022-08-17T15:44:32.504Z,61.78
2022-08-17T15:47:01.924Z,62.16
2022-08-17T15:49:28.459Z,62.68
2022-08-17T15:51:55.170Z,63.46
2022-08-17T15:54:22.721Z,63.00
2022-08-17T15:56:50.238Z,62.92
2022-08-17T15:59:16.852Z,63.54
2022-08-17T16:03:15.345Z,63.11
2022-08-17T16:04:31.823Z,63.28
2022-08-17T16:06:59.295Z,63.71
2022-08-17T16:09:25.914Z,63.31
2022-08-17T16:11:55.529Z,64.00
2022-08-17T16:14:24.189Z,63.87
2022-08-17T16:16:50.984Z,64.59
2022-08-17T16:19:17.573Z,64.47
2022-08-17T16:21:44.110Z,64.87
2022-08-17T16:24:13.376Z,65.34
2022-08-17T16:26:42.226Z,65.26
2022-08-17T16:29:08.985Z,65.20
2022-08-17T16:31:37.636Z,65.38
2022-08-17T16:34:16.699Z,65.70
2022-08-17T16:36:54.869Z,65.44
2022-08-17T16:39:26.993Z,66.17
2022-08-17T16:41:53.739Z,65.63
2022-08-17T16:44:21.984Z,65.56
2022-08-17T16:46:49.199Z,66.46
2022-08-17T16:49:24.417Z,66.45
2022-08-17T16:52:10.570Z,67.07
2022-08-17T16:54:39.437Z,67.89
2022-08-17T16:57:06.034Z,68.14
2022-08-17T16:59:40.298Z,68.65
2022-08-17T17:02:12.968Z,68.89
2022-08-17T17:04:48.139Z,68.57
2022-08-17T17:07:34.314Z,68.85
2022-08-17T17:10:10.771Z,69.60
2022-08-17T17:13:02.248Z,69.73
2022-08-17T17:15:33.420Z,70.15
2022-08-17T17:18:09.199Z,70.55
2022-08-17T17:20:45.846Z,70.91
2022-08-17T17:23:41.117Z,72.71
2022-08-17T17:26:55.179Z,73.09
2022-08-17T17:30:03.302Z,73.01
2022-08-17T17:32:49.892Z,73.19
2022-08-17T17:35:36.707Z,73.42
2022-08-17T17:38:13.221Z,73.62
2022-08-17T17:40:51.515Z,73.51
2022-08-17T17:43:40.575Z,73.74
2022-08-17T17:46:27.599Z,73.91
2022-08-17T17:48:57.052Z,73.86
2022-08-17T17:52:03.692Z,74.12
2022-08-17T17:54:17.508Z,75.20
2022-08-17T17:56:48.954Z,75.85
2022-08-17T17:59:44.108Z,75.54
2022-08-17T18:02:51.864Z,75.21
2022-08-17T18:05:51.499Z,75.47
2022-08-17T18:08:34.373Z,75.29
2022-08-17T18:11:13.279Z,75.13
2022-08-17T18:14:07.576Z,75.37
2022-08-17T18:16:35.010Z,75.41
2022-08-17T18:19:01.661Z,75.68
2022-08-17T18:21:44.011Z,75.60
2022-08-17T18:24:10.847Z,75.83
2022-08-17T18:26:45.485Z,76.29
2022-08-17T18:29:23.352Z,76.78
2022-08-17T18:32:27.131Z,77.22
2022-08-17T18:35:27.969Z,77.50
2022-08-17T18:37:58.022Z,77.60
2022-08-17T18:40:34.602Z,78.02
2022-08-17T18:43:02.988Z,78.47
2022-08-17T18:45:48.636Z,78.90
2022-08-17T18:48:26.403Z,78.69
2022-08-17T18:50:57.259Z,78.95
2022-08-17T18:53:34.060Z,79.10
2022-08-17T18:56:20.062Z,79.47
2022-08-17T18:59:16.015Z,79.45
2022-08-17T19:01:59.869Z,79.69
2022-08-17T19:04:34.775Z,79.68
2022-08-17T19:07:03.411Z,79.75
2022-08-17T19:09:34.439Z,80.08
2022-08-17T19:12:07.092Z,80.20
2022-08-17T19:14:34.540Z,80.19
2022-08-17T19:17:09.919Z,80.42
2022-08-17T19:19:56.267Z,81.13
2022-08-17T19:22:34.544Z,81.01
2022-08-17T19:25:12.220Z,81.56
2022-08-17T19:27:50.600Z,81.66
2022-08-17T19:30:24.397Z,82.05
2022-08-17T19:32:51.633Z,81.71
2022-08-17T19:35:20.286Z,81.59
2022-08-17T19:38:02.673Z,81.50
2022-08-17T19:41:09.947Z,81.63
2022-08-17T19:43:42.490Z,82.30
2022-08-17T19:46:27.345Z,82.71
2022-08-17T19:49:18.633Z,83.33
2022-08-17T19:52:02.061Z,83.01
2022-08-17T19:54:39.677Z,82.89
2022-08-17T19:57:16.354Z,82.32
2022-08-17T20:00:01.873Z,82.70
2022-08-17T20:02:58.058Z,83.27
2022-08-17T20:05:44.432Z,83.67
2022-08-17T20:08:33.953Z,83.52
2022-08-17T20:11:10.097Z,83.21
2022-08-17T20:13:44.285Z,83.33
2022-08-17T20:16:12.205Z,84.02
2022-08-17T20:18:49.344Z,84.34
2022-08-17T20:21:23.070Z,84.33
2022-08-17T20:23:52.164Z,84.37
2022-08-17T20:26:26.433Z,84.56
2022-08-17T20:29:29.572Z,84.73
2022-08-17T20:32:22.924Z,84.80
2022-08-17T20:35:05.593Z,85.08
2022-08-17T20:37:34.911Z,84.94
2022-08-17T20:40:04.403Z,84.83
2022-08-17T20:42:33.761Z,85.02
2022-08-17T20:45:05.649Z,84.97
2022-08-17T20:47:35.702Z,85.20
2022-08-17T20:50:08.102Z,85.37
2022-08-17T20:52:52.252Z,85.44
2022-08-17T20:55:34.282Z,85.72
2022-08-17T20:58:15.870Z,85.86
2022-08-17T21:00:57.530Z,85.83
2022-08-17T21:03:24.190Z,85.57
2022-08-17T21:06:00.268Z,85.38
2022-08-17T21:08:43.737Z,85.76
2022-08-17T21:12:01.476Z,86.08
2022-08-17T21:14:29.708Z,86.47
2022-08-17T21:17:17.758Z,86.70
2022-08-17T21:20:14.299Z,86.63
2022-08-17T21:23:02.236Z,86.44
2022-08-17T21:25:53.191Z,86.51
2022-08-17T21:28:34.271Z,87.27
2022-08-17T21:31:09.164Z,87.31
2022-08-17T21:33:39.565Z,87.25
2022-08-17T21:36:12.078Z,86.86
2022-08-17T21:38:47.686Z,86.89
2022-08-17T21:41:54.519Z,86.67
2022-08-17T21:44:49.352Z,87.02
2022-08-17T21:47:24.716Z,87.29
2022-08-17T21:49:53.135Z,87.69
2022-08-17T21:52:24.082Z,88.08
2022-08-17T21:54:54.269Z,88.29
2022-08-17T21:57:24.227Z,88.08
2022-08-17T21:59:57.261Z,88.32
2022-08-17T22:02:36.117Z,88.74
2022-08-17T22:05:05.577Z,88.81
2022-08-17T22:07:41.605Z,88.45
2022-08-17T22:10:47.512Z,88.64
2022-08-17T22:13:17.666Z,88.13
2022-08-17T22:15:47.997Z,88.16
2022-08-17T22:18:24.537Z,87.79
2022-08-17T22:20:54.808Z,88.11
2022-08-17T22:23:47.717Z,88.67
2022-08-17T22:26:16.730Z,88.56
2022-08-17T22:28:45.969Z,88.46
2022-08-17T22:31:18.137Z,88.30
2022-08-17T22:33:49.114Z,88.69
2022-08-17T22:36:29.437Z,88.89
2022-08-17T22:38:56.161Z,89.20
2022-08-17T22:41:41.198Z,89.00
2022-08-17T22:44:15.457Z,88.66
2022-08-17T22:46:49.122Z,88.50
2022-08-17T22:49:26.765Z,88.45
2022-08-17T22:52:19.939Z,88.48
2022-08-17T22:55:09.324Z,88.61
2022-08-17T22:57:55.089Z,88.97
2022-08-17T23:00:33.406Z,88.70
2022-08-17T23:03:23.496Z,89.06
2022-08-17T23:06:09.656Z,89.06
2022-08-17T23:08:54.700Z,89.00
2022-08-17T23:11:36.556Z,88.87
2022-08-17T23:14:14.499Z,89.20
2022-08-17T23:16:44.608Z,89.74
2022-08-17T23:19:15.420Z,89.95
2022-08-17T23:21:44.902Z,90.17
2022-08-17T23:24:17.373Z,90.09
2022-08-17T23:26:43.953Z,90.07
2022-08-17T23:29:10.559Z,89.84
2022-08-17T23:31:38.607Z,89.50
2022-08-17T23:34:09.195Z,89.75
2022-08-17T23:36:36.264Z,89.99
2022-08-17T23:39:03.842Z,90.50
2022-08-17T23:41:34.640Z,90.86
2022-08-17T23:44:02.961Z,90.58
2022-08-17T23:46:29.514Z,89.96
2022-08-17T23:48:56.090Z,89.52
2022-08-17T23:51:30.825Z,89.60
2022-08-17T23:54:07.939Z,89.52
2022-08-17T23:56:38.572Z,89.39
2022-08-17T23:59:05.603Z,89.19
